Time;durP1;ratioP1;P1;durP2;ratioP2;P2;SDS_P1;SDS_P2;PMS_P1;PMS_P2;Temp;Humidity;BMP_temperature;BMP_pressure;BME280_temperature;BME280_humidity;BME280_pressure;Samples;Min_cycle;Max_cycle;Signal;HPM_P1;HPM_P2
2022/01/16 10:46:11;;;;;;;12.23;7.00;;;20.50;89.20;;;;;;4940636;29;20075;-83
2022/01/16 10:49:13;;;;;;;14.00;7.32;;;20.60;88.80;;;;;;4924306;29;20445;-82
2022/01/16 10:55:45;;;;;;;;;;;;;;;;;;;;;
2022/01/16 11:02:05;;;;;;;10.18;6.72;;;20.80;89.70;;;;;;4839756;29;20026;-82
2022/01/16 11:05:07;;;;;;;10.00;5.97;;;20.80;89.80;;;;;;4858777;29;20104;-82
2022/01/16 11:12:17;;;;;;;8.93;6.18;;;20.90;88.60;;;;;;4842613;29;20021;-83
2022/01/16 11:15:08;;;;;;;11.15;6.15;;;20.70;88.80;;;;;;4847337;29;20442;-82
2022/01/16 11:22:02;;;;;;;7.72;5.18;;;20.60;88.70;;;;;;4771789;29;20285;-83
2022/01/16 11:25:09;;;;;;;9.77;5.88;;;20.60;89.30;;;;;;4787064;29;20408;-82
2022/01/16 11:28:23;;;;;;;10.13;6.00;;;20.60;89.60;;;;;;4785426;29;20111;-82
2022/01/16 11:31:31;;;;;;;;;;;;;;;;;;;;;
2022/01/16 11:44:18;;;;;;;10.18;7.10;;;20.80;90.70;;;;;;4893523;29;20040;-82
2022/01/16 11:47:06;;;;;;;13.23;8.55;;;20.80;91.00;;;;;;4820803;29;20026;-82
2022/01/16 11:50:23;;;;;;;11.63;8.40;;;20.70;91.50;;;;;;4818555;29;20146;-82
2022/01/16 11:53:40;;;;;;;19.35;9.90;;;20.50;92.10;;;;;;4821039;29;20496;-82
2022/01/16 11:57:11;;;;;;;;;;;;;;;;;;;;;
2022/01/16 11:59:45;;;;;;;14.82;10.00;;;20.40;93.30;;;;;;4914221;29;20039;-82
2022/01/16 12:02:17;;;;;;;16.98;11.30;;;20.00;94.20;;;;;;4916337;29;20068;-82
2022/01/16 12:05:33;;;;;;;;;;;19.70;94.90;;;;;;4917025;29;20359;-82
2022/01/16 12:08:28;;;;;;;17.90;12.63;;;19.30;96.00;;;;;;4911861;29;19950;-81
2022/01/16 12:15:09;;;;;;;22.10;12.95;;;18.30;98.30;;;;;;4855830;29;20032;-81
2022/01/16 12:21:38;;;;;;;19.10;13.67;;;17.60;99.90;;;;;;4846217;29;20058;-81
2022/01/16 12:29:11;;;;;;;20.15;14.07;;;16.90;99.90;;;;;;4838807;29;20030;-81
2022/01/16 12:31:54;;;;;;;21.83;14.75;;;16.50;99.90;;;;;;4816427;29;20116;-81
2022/01/16 12:35:07;;;;;;;;;;;;;;;;;;;;;
2022/01/16 12:38:17;;;;;;;22.42;15.35;;;15.90;99.90;;;;;;4865690;29;20041;-82
2022/01/16 12:41:27;;;;;;;25.58;15.60;;;15.60;99.90;;;;;;4899216;29;20029;-81
2022/01/16 12:47:53;;;;;;;;;;;;;;;;;;;;;
2022/01/16 13:37:39;;;;;;;58.75;34.65;;;13.30;99.90;;;;;;4943314;23;20448;-84
2022/01/16 13:40:13;;;;;;;54.35;36.65;;;13.20;99.90;;;;;;4936797;29;20049;-88
2022/01/16 13:45:24;;;;;;;56.85;37.22;;;13.10;99.90;;;;;;4914017;29;20051;-83
2022/01/16 13:48:15;;;;;;;63.45;39.83;;;13.10;99.90;;;;;;4938561;29;20032;-86
2022/01/16 13:50:53;;;;;;;62.78;41.45;;;13.00;99.90;;;;;;4914400;29;20036;-85
2022/01/16 13:53:42;;;;;;;70.60;41.47;;;13.00;99.90;;;;;;4915930;29;20508;-84
2022/01/16 13:56:27;;;;;;;66.97;44.40;;;13.00;99.90;;;;;;4918584;29;20509;-79
2022/01/16 13:58:56;;;;;;;69.85;46.83;;;12.90;99.90;;;;;;4901260;29;20620;-84
2022/01/16 14:01:25;;;;;;;76.80;48.05;;;12.90;99.90;;;;;;4918078;29;20033;-82
2022/01/16 14:03:57;;;;;;;75.10;51.40;;;12.80;99.90;;;;;;4918114;29;20032;-79
2022/01/16 14:06:26;;;;;;;80.45;54.10;;;12.80;99.90;;;;;;4918900;29;20051;-86
2022/01/16 14:09:03;;;;;;;86.88;56.53;;;12.80;99.90;;;;;;4918983;29;20029;-85
2022/01/16 14:11:40;;;;;;;84.72;55.22;;;12.80;99.90;;;;;;4910624;29;20024;-81
2022/01/16 14:14:07;;;;;;;79.80;54.65;;;12.80;99.90;;;;;;4928947;29;20092;-81
2022/01/16 14:16:50;;;;;;;76.38;52.42;;;12.80;99.90;;;;;;4929360;29;20051;-93
2022/01/16 14:19:20;;;;;;;83.22;53.75;;;12.70;99.90;;;;;;4923274;29;20043;-89
2022/01/16 14:22:11;;;;;;;81.25;55.05;;;12.70;99.90;;;;;;4927790;29;20024;-86
2022/01/16 14:24:51;;;;;;;83.30;56.95;;;12.60;99.90;;;;;;4916643;29;20032;-90
2022/01/16 14:27:20;;;;;;;113.55;61.63;;;12.60;99.90;;;;;;4917384;29;20020;-90
2022/01/16 14:29:49;;;;;;;95.82;60.83;;;12.60;99.90;;;;;;4908616;29;20036;-87
2022/01/16 14:32:15;;;;;;;95.45;61.17;;;12.60;99.90;;;;;;4921477;29;20366;-86
2022/01/16 14:34:43;;;;;;;104.05;69.15;;;12.60;99.90;;;;;;4919235;29;20119;-84
2022/01/16 14:37:12;;;;;;;96.28;63.53;;;12.50;99.90;;;;;;4921498;29;20406;-84
2022/01/16 14:39:38;;;;;;;97.40;62.53;;;12.50;99.90;;;;;;4903828;29;20583;-85
2022/01/16 14:42:06;;;;;;;94.15;62.38;;;12.50;99.90;;;;;;4919842;29;20529;-86
2022/01/16 14:44:34;;;;;;;90.22;63.63;;;12.50;99.90;;;;;;4919565;29;20028;-86
2022/01/16 14:47:03;;;;;;;109.30;75.50;;;12.40;99.90;;;;;;4901973;29;20020;-93
2022/01/16 14:49:29;;;;;;;109.18;69.85;;;12.30;99.90;;;;;;4920688;29;20024;-87
2022/01/16 14:51:55;;;;;;;98.68;67.75;;;12.30;99.90;;;;;;4919421;29;20024;-90
2022/01/16 14:54:22;;;;;;;106.80;67.05;;;12.30;99.90;;;;;;4921626;29;20119;-93
2022/01/16 14:56:48;;;;;;;97.60;66.15;;;12.30;99.90;;;;;;4926708;29;20031;-89
2022/01/16 14:59:15;;;;;;;106.03;67.57;;;12.20;99.90;;;;;;4908086;29;20068;-85
2022/01/16 15:01:42;;;;;;;94.57;63.72;;;12.20;99.90;;;;;;4920398;29;20052;-87
2022/01/16 15:04:09;;;;;;;105.32;67.78;;;12.20;99.90;;;;;;4919866;29;20032;-84
2022/01/16 15:06:35;;;;;;;101.63;69.20;;;12.10;99.90;;;;;;4918956;29;20020;-82
2022/01/16 15:09:03;;;;;;;107.60;68.80;;;12.10;99.90;;;;;;4918156;29;20034;-88
2022/01/16 15:11:29;;;;;;;106.40;69.40;;;12.00;99.90;;;;;;4918073;29;20092;-89
2022/01/16 15:13:58;;;;;;;110.82;74.10;;;12.00;99.90;;;;;;4917513;29;20120;-82
2022/01/16 15:16:26;;;;;;;109.45;71.45;;;12.00;99.90;;;;;;4917809;29;20063;-87
2022/01/16 15:18:56;;;;;;;105.47;70.32;;;11.90;99.90;;;;;;4917081;29;20033;-85
2022/01/16 15:24:10;;;;;;;111.80;72.88;;;11.80;99.90;;;;;;4914366;29;20402;-85
2022/01/16 15:26:36;;;;;;;111.72;73.55;;;11.70;99.90;;;;;;4916101;29;20078;-79
2022/01/16 15:29:02;;;;;;;111.20;73.72;;;11.70;99.90;;;;;;4914920;29;20067;-82
2022/01/16 15:31:27;;;;;;;113.50;75.05;;;11.70;99.90;;;;;;4916672;29;20115;-75
2022/01/16 15:33:55;;;;;;;119.32;79.25;;;11.70;99.90;;;;;;4899686;29;20136;-77
2022/01/16 15:36:24;;;;;;;108.65;72.80;;;11.60;99.90;;;;;;4916291;29;20568;-84
2022/01/16 15:38:58;;;;;;;118.53;78.72;;;11.60;99.90;;;;;;4916282;29;20048;-75
2022/01/16 15:41:24;;;;;;;122.82;78.88;;;11.60;99.90;;;;;;4916384;29;20437;-81
2022/01/16 15:43:51;;;;;;;113.82;77.22;;;11.50;99.90;;;;;;4916286;29;20071;-75
2022/01/16 15:46:17;;;;;;;121.82;80.60;;;11.50;99.90;;;;;;4915974;29;20027;-82
2022/01/16 15:48:42;;;;;;;116.60;80.65;;;11.40;99.90;;;;;;4916564;29;20016;-80
2022/01/16 15:51:09;;;;;;;124.32;81.55;;;11.40;99.90;;;;;;4915922;29;20059;-86
2022/01/16 15:53:35;;;;;;;117.07;79.97;;;11.30;99.90;;;;;;4915979;29;20437;-84
2022/01/16 15:56:01;;;;;;;126.00;83.43;;;11.30;99.90;;;;;;4915597;29;20111;-81
2022/01/16 15:58:26;;;;;;;129.40;82.97;;;11.20;99.90;;;;;;4922842;29;20027;-80
2022/01/16 16:00:52;;;;;;;121.40;81.97;;;11.20;99.90;;;;;;4921368;29;20093;-77
2022/01/16 16:03:17;;;;;;;124.72;82.78;;;11.10;99.90;;;;;;4917985;29;20028;-76
2022/01/16 16:05:43;;;;;;;125.70;83.30;;;11.10;99.90;;;;;;4922138;29;20418;-82
2022/01/16 16:08:09;;;;;;;136.45;86.13;;;11.00;99.90;;;;;;4917265;29;20028;-86
2022/01/16 16:10:36;;;;;;;127.80;81.53;;;10.90;99.90;;;;;;4893116;29;20032;-80
2022/01/16 16:13:03;;;;;;;124.15;83.68;;;10.90;99.90;;;;;;4915456;29;20024;-77
2022/01/16 16:15:29;;;;;;;127.28;82.72;;;10.80;99.90;;;;;;4913046;29;20087;-85
2022/01/16 16:17:55;;;;;;;141.57;91.85;;;10.70;99.90;;;;;;4915614;29;20513;-76
2022/01/16 16:20:23;;;;;;;132.52;89.15;;;10.70;99.90;;;;;;4916127;29;20044;-84
2022/01/16 16:22:55;;;;;;;140.77;86.40;;;10.70;99.90;;;;;;4916738;29;20083;-86
2022/01/16 16:25:21;;;;;;;132.82;84.35;;;10.60;99.90;;;;;;4916440;29;20111;-79
2022/01/16 16:27:49;;;;;;;131.77;85.00;;;10.50;99.90;;;;;;4916985;29;20032;-82
2022/01/16 16:30:16;;;;;;;134.13;87.28;;;10.40;99.90;;;;;;4916429;29;20016;-78
2022/01/16 16:32:43;;;;;;;130.43;84.38;;;10.40;99.90;;;;;;4915813;29;20028;-77
2022/01/16 16:35:16;;;;;;;139.48;90.32;;;10.30;99.90;;;;;;4916338;29;20052;-81
2022/01/16 16:37:43;;;;;;;126.40;82.40;;;10.30;99.90;;;;;;4918180;29;20044;-78
2022/01/16 16:40:11;;;;;;;125.80;82.78;;;10.20;99.90;;;;;;4920272;29;20067;-80
2022/01/16 16:42:38;;;;;;;127.95;82.68;;;10.20;99.90;;;;;;4915112;29;20047;-82
2022/01/16 16:45:06;;;;;;;132.48;87.55;;;10.20;99.90;;;;;;4900929;29;20080;-83
2022/01/16 16:47:32;;;;;;;129.05;84.05;;;10.20;99.90;;;;;;4919279;29;20062;-80
2022/01/16 16:49:58;;;;;;;137.45;86.47;;;10.10;99.90;;;;;;4912778;29;20769;-80
2022/01/16 16:52:24;;;;;;;138.88;90.70;;;10.10;99.90;;;;;;4913287;29;20056;-78
2022/01/16 16:54:50;;;;;;;138.32;91.70;;;10.00;99.90;;;;;;4899201;29;20039;-78
2022/01/16 16:57:16;;;;;;;143.20;91.22;;;10.00;99.90;;;;;;4916154;29;20024;-84
2022/01/16 16:59:43;;;;;;;139.95;90.28;;;10.00;99.90;;;;;;4915373;29;20032;-77
2022/01/16 17:02:10;;;;;;;127.43;87.30;;;9.90;99.90;;;;;;4915693;29;20115;-83
2022/01/16 17:04:37;;;;;;;136.00;88.95;;;9.90;99.90;;;;;;4918308;29;20032;-78
2022/01/16 17:07:05;;;;;;;140.30;87.15;;;9.90;99.90;;;;;;4896242;29;20060;-79
2022/01/16 17:09:31;;;;;;;136.93;87.95;;;9.90;99.90;;;;;;4914485;29;20036;-79
2022/01/16 17:11:57;;;;;;;132.20;87.57;;;9.90;99.90;;;;;;4897757;29;20035;-77
2022/01/16 17:14:22;;;;;;;130.45;86.57;;;9.90;99.90;;;;;;4915522;29;20028;-77
2022/01/16 17:16:50;;;;;;;150.43;88.45;;;9.90;99.90;;;;;;4913638;29;20034;-76
2022/01/16 17:19:38;;;;;;;137.80;89.05;;;10.00;99.90;;;;;;4916007;29;20032;-80
2022/01/16 17:22:10;;;;;;;151.45;89.28;;;10.00;99.90;;;;;;4914277;29;20087;-86
2022/01/16 17:24:36;;;;;;;130.80;88.63;;;10.00;99.90;;;;;;4915178;29;20063;-78
2022/01/16 17:27:03;;;;;;;143.50;92.25;;;10.10;99.90;;;;;;4917861;29;20524;-84
2022/01/16 17:29:30;;;;;;;147.85;97.80;;;10.10;99.90;;;;;;4919509;29;20036;-84
2022/01/16 17:31:56;;;;;;;166.60;109.22;;;10.10;99.90;;;;;;4925099;29;20078;-83
2022/01/16 17:34:21;;;;;;;141.27;90.53;;;10.10;99.90;;;;;;4912782;29;20557;-82
2022/01/16 17:36:47;;;;;;;155.27;99.63;;;10.10;99.90;;;;;;4898890;29;20481;-76
2022/01/16 17:39:13;;;;;;;135.70;88.03;;;10.00;99.90;;;;;;4918029;29;20054;-80
2022/01/16 17:41:39;;;;;;;149.15;86.50;;;9.90;99.90;;;;;;4915395;29;20457;-82
2022/01/16 17:44:05;;;;;;;123.65;77.45;;;9.70;99.90;;;;;;4911245;29;20553;-90
2022/01/16 17:46:30;;;;;;;120.55;72.88;;;9.70;99.90;;;;;;4904332;29;20032;-79
2022/01/16 17:48:56;;;;;;;110.60;69.80;;;9.50;99.90;;;;;;4912632;29;20040;-80
2022/01/16 17:51:22;;;;;;;105.50;67.10;;;9.40;99.90;;;;;;4917226;29;20481;-81
2022/01/16 17:53:50;;;;;;;109.28;65.72;;;9.30;99.90;;;;;;4918376;29;20441;-82
2022/01/16 17:56:16;;;;;;;99.20;60.25;;;9.20;99.90;;;;;;4924858;29;20032;-80
2022/01/16 17:58:42;;;;;;;101.03;61.22;;;9.20;99.90;;;;;;4931082;29;20102;-80
2022/01/16 18:01:07;;;;;;;107.07;64.93;;;9.20;99.90;;;;;;4921501;29;20074;-82
2022/01/16 18:03:33;;;;;;;148.93;82.95;;;9.20;99.90;;;;;;4937122;29;20020;-80
2022/01/16 18:05:59;;;;;;;116.32;70.63;;;9.20;99.90;;;;;;4926847;29;20067;-79
2022/01/16 18:08:24;;;;;;;107.85;64.40;;;9.20;99.90;;;;;;4922209;29;20035;-75
2022/01/16 18:10:50;;;;;;;136.93;79.18;;;9.30;99.90;;;;;;4936906;29;20445;-79
2022/01/16 18:13:16;;;;;;;134.35;76.65;;;9.30;99.90;;;;;;4936952;29;20106;-82
2022/01/16 18:15:43;;;;;;;116.25;71.43;;;9.30;99.90;;;;;;4936960;29;20157;-80
2022/01/16 18:18:09;;;;;;;133.23;76.82;;;9.40;99.90;;;;;;4936529;29;20024;-81
2022/01/16 18:20:35;;;;;;;108.75;67.00;;;9.40;99.90;;;;;;4936684;29;20036;-76
2022/01/16 18:23:01;;;;;;;107.80;66.85;;;9.40;99.90;;;;;;4932018;29;20031;-81
2022/01/16 18:25:27;;;;;;;105.43;68.75;;;9.40;99.90;;;;;;4920448;29;20036;-86
2022/01/16 18:27:53;;;;;;;133.85;78.78;;;9.50;99.90;;;;;;4919461;29;20024;-90
2022/01/16 18:30:19;;;;;;;112.95;71.88;;;9.50;99.90;;;;;;4900888;29;20027;-83
2022/01/16 18:32:46;;;;;;;120.05;73.45;;;9.60;99.90;;;;;;4928071;29;20043;-83
2022/01/16 18:35:14;;;;;;;111.38;70.95;;;9.60;99.90;;;;;;4939680;29;20011;-93
2022/01/16 18:37:41;;;;;;;120.72;72.13;;;9.60;99.90;;;;;;4935282;29;20052;-81
2022/01/16 18:40:09;;;;;;;123.38;74.88;;;9.50;99.90;;;;;;4936262;29;20516;-83
2022/01/16 18:42:34;;;;;;;119.70;76.93;;;9.60;99.90;;;;;;4929267;29;20082;-78
2022/01/16 18:45:04;;;;;;;126.95;81.32;;;9.60;99.90;;;;;;4917168;29;20020;-86
2022/01/16 18:47:32;;;;;;;132.70;78.80;;;9.60;99.90;;;;;;4900304;29;20400;-81
2022/01/16 18:49:58;;;;;;;118.30;77.47;;;9.70;99.90;;;;;;4899986;29;20111;-80
2022/01/16 18:52:25;;;;;;;128.48;81.30;;;9.70;99.90;;;;;;4899833;29;20051;-80
2022/01/16 18:54:51;;;;;;;126.07;78.35;;;9.70;99.90;;;;;;4916746;29;20107;-81
2022/01/16 18:57:17;;;;;;;141.00;86.30;;;9.70;99.90;;;;;;4917604;29;20496;-80
2022/01/16 18:59:44;;;;;;;165.57;95.60;;;9.80;99.90;;;;;;4900002;29;20036;-79
2022/01/16 19:02:10;;;;;;;154.88;91.85;;;9.80;99.90;;;;;;4899480;29;20049;-79
2022/01/16 19:04:37;;;;;;;157.95;95.32;;;9.90;99.90;;;;;;4916420;29;20516;-80
2022/01/16 19:07:03;;;;;;;165.15;99.00;;;9.90;99.90;;;;;;4900552;29;20103;-79
2022/01/16 19:09:29;;;;;;;152.55;95.55;;;10.00;99.90;;;;;;4900008;29;20028;-80
2022/01/16 19:11:55;;;;;;;144.90;91.28;;;10.00;99.90;;;;;;4916890;29;20035;-79
2022/01/16 19:14:20;;;;;;;135.00;86.82;;;10.00;99.90;;;;;;4916716;29;20036;-79
2022/01/16 19:16:51;;;;;;;166.63;99.43;;;10.00;99.90;;;;;;4916416;29;20324;-79
2022/01/16 19:19:17;;;;;;;188.27;115.60;;;10.10;99.90;;;;;;4899187;29;20497;-79
2022/01/16 19:21:43;;;;;;;192.98;120.97;;;10.10;99.90;;;;;;4917176;29;20064;-79
2022/01/16 19:24:08;;;;;;;154.75;96.55;;;10.10;99.90;;;;;;4916933;29;20084;-79
2022/01/16 19:26:34;;;;;;;147.15;89.10;;;10.20;99.90;;;;;;4899478;29;20024;-78
2022/01/16 19:29:00;;;;;;;147.57;95.30;;;10.00;99.90;;;;;;4916405;29;20373;-78
2022/01/16 19:31:26;;;;;;;153.63;93.95;;;10.00;99.90;;;;;;4916519;29;20025;-82
2022/01/16 19:33:51;;;;;;;152.88;98.60;;;10.00;99.90;;;;;;4916519;29;20027;-79
2022/01/16 19:36:19;;;;;;;154.45;98.75;;;10.00;99.90;;;;;;4916115;29;20785;-80
2022/01/16 19:38:45;;;;;;;167.50;104.68;;;10.00;99.90;;;;;;4915858;29;20044;-79
2022/01/16 19:41:11;;;;;;;164.45;103.30;;;10.00;99.90;;;;;;4899514;29;20032;-79
2022/01/16 19:43:37;;;;;;;146.82;93.72;;;10.00;99.90;;;;;;4916517;29;20053;-79
2022/01/16 19:46:05;;;;;;;138.27;87.95;;;9.90;99.90;;;;;;4916109;29;20389;-79
2022/01/16 19:48:32;;;;;;;144.88;88.13;;;9.90;99.90;;;;;;4915637;29;20028;-80
2022/01/16 19:50:58;;;;;;;146.13;88.90;;;9.90;99.90;;;;;;4915942;29;20385;-79
2022/01/16 19:53:24;;;;;;;143.80;91.18;;;9.80;99.90;;;;;;4898763;29;20031;-79
2022/01/16 19:55:50;;;;;;;137.98;87.72;;;9.80;99.90;;;;;;4915679;29;20433;-79
2022/01/16 19:58:17;;;;;;;156.38;91.18;;;9.80;99.90;;;;;;4915498;29;20039;-78
2022/01/16 20:00:48;;;;;;;155.38;90.53;;;9.70;99.90;;;;;;4915755;29;20032;-78
2022/01/16 20:03:17;;;;;;;145.65;92.80;;;9.60;99.90;;;;;;4916064;29;20024;-79
2022/01/16 20:05:44;;;;;;;142.18;88.43;;;9.50;99.90;;;;;;4898556;29;20131;-81
2022/01/16 20:08:11;;;;;;;135.27;85.65;;;9.40;99.90;;;;;;4914997;29;20020;-79
2022/01/16 20:10:37;;;;;;;140.68;88.63;;;9.40;99.90;;;;;;4914712;29;20401;-78
2022/01/16 20:13:03;;;;;;;165.75;96.30;;;9.40;99.90;;;;;;4911276;29;20033;-79
2022/01/16 20:15:28;;;;;;;143.65;92.50;;;9.30;99.90;;;;;;4896927;29;20107;-77
2022/01/16 20:17:58;;;;;;;152.32;90.25;;;9.30;99.90;;;;;;4914631;29;20032;-79
2022/01/16 20:20:25;;;;;;;148.48;91.47;;;9.30;99.90;;;;;;4913375;29;20032;-79
2022/01/16 20:22:58;;;;;;;140.60;89.85;;;9.20;99.90;;;;;;4915713;29;20023;-78
2022/01/16 20:25:25;;;;;;;145.20;90.70;;;9.30;99.90;;;;;;4915062;29;20048;-78
2022/01/16 20:27:55;;;;;;;150.25;91.00;;;9.30;99.90;;;;;;4898569;29;20059;-79
2022/01/16 20:30:25;;;;;;;148.88;92.93;;;9.30;99.90;;;;;;4897576;29;20123;-80
2022/01/16 20:32:52;;;;;;;148.55;91.38;;;9.30;99.90;;;;;;4910922;29;20111;-80
2022/01/16 20:35:17;;;;;;;153.15;92.80;;;9.30;99.90;;;;;;4913951;29;20028;-78
2022/01/16 20:37:43;;;;;;;159.60;96.82;;;9.30;99.90;;;;;;4914208;29;20116;-82
2022/01/16 20:40:14;;;;;;;155.25;96.63;;;9.30;99.90;;;;;;4914445;29;20036;-81
2022/01/16 20:42:40;;;;;;;171.77;100.03;;;9.20;99.90;;;;;;4893711;29;20024;-89
2022/01/16 20:45:07;;;;;;;153.70;98.07;;;9.20;99.90;;;;;;4913011;29;20390;-83
2022/01/16 20:48:08;;;;;;;154.00;98.32;;;9.10;99.90;;;;;;4909149;29;20537;-90
2022/01/16 20:50:34;;;;;;;166.95;102.60;;;9.10;99.90;;;;;;4915731;29;20024;-84
2022/01/16 20:53:00;;;;;;;165.30;102.72;;;9.00;99.90;;;;;;4915017;29;20034;-83
2022/01/16 20:55:26;;;;;;;179.50;107.15;;;8.90;99.90;;;;;;4914755;29;20031;-78
2022/01/16 20:57:53;;;;;;;172.40;104.05;;;8.90;99.90;;;;;;4914926;29;20036;-76
2022/01/16 21:00:19;;;;;;;169.55;101.10;;;8.80;99.90;;;;;;4915063;29;20111;-77
2022/01/16 21:02:46;;;;;;;156.75;98.65;;;8.80;99.90;;;;;;4914182;29;20020;-76
2022/01/16 21:05:14;;;;;;;159.48;98.53;;;8.80;99.90;;;;;;4918216;29;20039;-76
2022/01/16 21:07:40;;;;;;;173.95;105.32;;;8.70;99.90;;;;;;4919212;29;20041;-79
2022/01/16 21:10:07;;;;;;;167.30;103.88;;;8.70;99.90;;;;;;4918423;29;21017;-78
2022/01/16 21:12:33;;;;;;;168.02;102.50;;;8.70;99.90;;;;;;4918364;29;20035;-79
2022/01/16 21:15:04;;;;;;;172.38;103.32;;;8.60;99.90;;;;;;4918495;29;20028;-77
2022/01/16 21:17:30;;;;;;;165.65;104.47;;;8.60;99.90;;;;;;4919212;29;20020;-85
2022/01/16 21:19:56;;;;;;;161.85;106.18;;;8.60;99.90;;;;;;4901208;29;20675;-77
2022/01/16 21:22:23;;;;;;;170.93;107.13;;;8.60;99.90;;;;;;4925483;29;20052;-77
2022/01/16 21:24:50;;;;;;;177.80;105.25;;;8.60;99.90;;;;;;4920766;29;20043;-79
2022/01/16 21:27:16;;;;;;;169.18;102.78;;;8.60;99.90;;;;;;4917518;29;20146;-80
2022/01/16 21:29:45;;;;;;;168.75;103.70;;;8.50;99.90;;;;;;4901062;29;20398;-84
2022/01/16 21:32:13;;;;;;;162.77;104.00;;;8.50;99.90;;;;;;4918301;29;20024;-79
2022/01/16 21:34:43;;;;;;;163.68;102.25;;;8.50;99.90;;;;;;4915056;29;20103;-77
2022/01/16 21:37:10;;;;;;;183.48;115.38;;;8.50;99.90;;;;;;4918260;29;20052;-77
2022/01/16 21:39:39;;;;;;;199.52;119.40;;;8.50;99.90;;;;;;4917789;29;20072;-77
2022/01/16 21:42:06;;;;;;;193.20;122.18;;;8.50;99.90;;;;;;4918623;29;20083;-76
2022/01/16 21:44:32;;;;;;;166.23;104.07;;;8.40;99.90;;;;;;4918168;29;20607;-79
2022/01/16 21:46:57;;;;;;;162.40;98.82;;;8.40;99.90;;;;;;4918270;29;20024;-77
2022/01/16 21:49:23;;;;;;;175.05;104.15;;;8.40;99.90;;;;;;4901357;29;20075;-78
2022/01/16 21:51:50;;;;;;;152.50;94.45;;;8.30;99.90;;;;;;4910559;29;20087;-78
2022/01/16 21:54:19;;;;;;;151.32;93.55;;;8.30;99.90;;;;;;4917884;29;20115;-77
2022/01/16 21:56:46;;;;;;;149.48;92.28;;;8.30;99.90;;;;;;4916922;29;20159;-78
2022/01/16 21:59:12;;;;;;;145.50;90.53;;;8.20;99.90;;;;;;4898520;29;20087;-78
2022/01/16 22:01:38;;;;;;;135.77;86.15;;;8.20;99.90;;;;;;4899617;29;20031;-77
2022/01/16 22:04:04;;;;;;;132.70;83.45;;;8.10;99.90;;;;;;4899454;29;20107;-78
2022/01/16 22:06:30;;;;;;;135.23;82.43;;;8.10;99.90;;;;;;4906104;29;20048;-78
2022/01/16 22:08:56;;;;;;;124.47;78.45;;;8.10;99.90;;;;;;4902112;29;20041;-78
2022/01/16 22:11:23;;;;;;;121.10;71.65;;;8.00;99.90;;;;;;4880840;29;20111;-78
2022/01/16 22:13:52;;;;;;;97.22;60.22;;;7.90;99.90;;;;;;4899509;29;20037;-75
2022/01/16 22:16:18;;;;;;;86.97;51.80;;;7.80;99.90;;;;;;4899869;29;20021;-78
2022/01/16 22:18:44;;;;;;;78.80;48.00;;;7.70;99.90;;;;;;4899143;29;20028;-78
2022/01/16 22:21:11;;;;;;;65.88;39.70;;;7.70;99.90;;;;;;4899516;29;20648;-78
2022/01/16 22:23:40;;;;;;;73.10;42.63;;;7.70;99.90;;;;;;4899102;29;20025;-78
2022/01/16 22:26:09;;;;;;;72.90;39.33;;;7.70;99.90;;;;;;4899199;29;20036;-78
2022/01/16 22:28:36;;;;;;;72.00;42.58;;;7.60;99.90;;;;;;4899557;29;20028;-78
2022/01/16 22:31:06;;;;;;;89.50;49.80;;;7.50;99.90;;;;;;4900741;29;20039;-79
2022/01/16 22:33:32;;;;;;;100.43;58.60;;;7.50;99.90;;;;;;4899513;29;20036;-78
2022/01/16 22:35:58;;;;;;;94.05;56.80;;;7.40;99.90;;;;;;4899878;29;20119;-78
2022/01/16 22:38:24;;;;;;;82.55;49.63;;;7.40;99.90;;;;;;4898965;29;20518;-78
2022/01/16 22:40:49;;;;;;;69.70;42.13;;;7.40;99.90;;;;;;4904669;29;20121;-77
2022/01/16 22:43:16;;;;;;;65.88;39.33;;;7.40;99.90;;;;;;4918996;29;20021;-77
2022/01/16 22:45:42;;;;;;;62.85;35.67;;;7.30;99.90;;;;;;4918919;29;20039;-77
2022/01/16 22:48:08;;;;;;;50.65;30.85;;;7.30;99.90;;;;;;4918397;29;20035;-77
2022/01/16 22:50:34;;;;;;;42.85;27.02;;;7.20;99.90;;;;;;4885561;29;20397;-78
2022/01/16 22:53:00;;;;;;;45.40;26.67;;;7.20;99.90;;;;;;4917899;29;20024;-79
2022/01/16 22:55:26;;;;;;;50.92;27.83;;;7.20;99.90;;;;;;4916091;29;20035;-77
2022/01/16 22:57:54;;;;;;;39.92;23.60;;;7.20;99.90;;;;;;4902385;29;20060;-78
2022/01/16 23:00:23;;;;;;;41.00;23.40;;;7.30;99.90;;;;;;4897482;29;20037;-77
2022/01/16 23:02:48;;;;;;;39.90;21.75;;;7.30;99.90;;;;;;4899400;29;20037;-77
2022/01/16 23:05:15;;;;;;;35.03;20.67;;;7.40;99.90;;;;;;4908806;29;20095;-77
2022/01/16 23:07:41;;;;;;;31.55;20.60;;;7.40;99.90;;;;;;4906999;29;20032;-78
2022/01/16 23:10:07;;;;;;;32.97;18.73;;;7.50;99.90;;;;;;4905074;29;20031;-78
2022/01/16 23:12:34;;;;;;;32.45;20.15;;;7.60;99.90;;;;;;4907522;29;20029;-76
2022/01/16 23:15:01;;;;;;;44.17;24.90;;;7.60;99.90;;;;;;4899395;29;20449;-78
2022/01/16 23:17:26;;;;;;;47.28;28.58;;;7.60;99.90;;;;;;4915845;29;20366;-77
2022/01/16 23:19:52;;;;;;;51.50;32.05;;;7.70;99.90;;;;;;4916781;29;20052;-77
2022/01/16 23:22:22;;;;;;;55.08;32.80;;;7.60;99.90;;;;;;4917317;29;20031;-77
2022/01/16 23:24:52;;;;;;;58.05;33.05;;;7.70;99.90;;;;;;4924475;29;20021;-77
2022/01/16 23:27:19;;;;;;;56.05;33.55;;;7.60;99.90;;;;;;4898140;29;20548;-77
2022/01/16 23:29:45;;;;;;;60.42;35.08;;;7.60;99.90;;;;;;4896310;29;20490;-78
2022/01/16 23:32:11;;;;;;;55.80;33.00;;;7.70;99.90;;;;;;4897609;29;20076;-77
2022/01/16 23:34:37;;;;;;;61.25;34.78;;;7.70;99.90;;;;;;4899992;29;20063;-77
2022/01/16 23:37:03;;;;;;;46.92;27.20;;;7.60;99.90;;;;;;4917193;29;20469;-77
2022/01/16 23:39:29;;;;;;;51.53;25.50;;;7.60;99.90;;;;;;4915813;29;20036;-78
2022/01/16 23:41:55;;;;;;;41.55;25.23;;;7.60;99.90;;;;;;4915295;29;20056;-77
2022/01/16 23:44:25;;;;;;;45.47;26.15;;;7.70;99.90;;;;;;4897760;29;20029;-78
2022/01/16 23:46:52;;;;;;;47.33;27.02;;;7.70;99.90;;;;;;4897652;29;20103;-78
2022/01/16 23:49:18;;;;;;;39.22;23.92;;;7.60;99.90;;;;;;4897759;29;20081;-77
2022/01/16 23:51:45;;;;;;;33.95;21.33;;;7.60;99.90;;;;;;4879414;29;20052;-77
2022/01/16 23:54:11;;;;;;;38.10;22.20;;;7.50;99.90;;;;;;4897309;29;20136;-77
2022/01/16 23:56:37;;;;;;;37.90;22.00;;;7.50;99.90;;;;;;4896006;29;20036;-77
2022/01/16 23:59:06;;;;;;;37.40;22.42;;;7.50;99.90;;;;;;4898025;29;20466;-79
